sensor_id;sensor_type;location;lat;lon;timestamp;temperature;humidity
30336;DHT22;17142;47.990;7.846;2023-04-03T00:01:20;6.00;99.90
30336;DHT22;17142;47.990;7.846;2023-04-03T00:03:48;6.00;99.90
30336;DHT22;17142;47.990;7.846;2023-04-03T00:06:15;6.00;99.90
30336;DHT22;17142;47.990;7.846;2023-04-03T00:08:43;5.90;99.90
30336;DHT22;17142;47.990;7.846;2023-04-03T00:11:11;5.90;99.90
30336;DHT22;17142;47.990;7.846;2023-04-03T00:13:37;5.80;99.90
30336;DHT22;17142;47.990;7.846;2023-04-03T00:16:04;5.80;99.90
30336;DHT22;17142;47.990;7.846;2023-04-03T00:18:30;5.70;99.90
30336;DHT22;17142;47.990;7.846;2023-04-03T00:20:59;5.70;99.90
30336;DHT22;17142;47.990;7.846;2023-04-03T00:23:25;5.70;99.90
30336;DHT22;17142;47.990;7.846;2023-04-03T00:25:51;5.80;99.90
30336;DHT22;17142;47.990;7.846;2023-04-03T00:28:17;5.80;99.90
30336;DHT22;17142;47.990;7.846;2023-04-03T00:30:45;5.70;99.90
30336;DHT22;17142;47.990;7.846;2023-04-03T00:33:14;5.70;99.90
30336;DHT22;17142;47.990;7.846;2023-04-03T00:35:40;5.70;99.90
30336;DHT22;17142;47.990;7.846;2023-04-03T00:38:06;5.50;99.90
30336;DHT22;17142;47.990;7.846;2023-04-03T00:40:41;5.50;99.90
30336;DHT22;17142;47.990;7.846;2023-04-03T00:43:16;5.40;99.90
30336;DHT22;17142;47.990;7.846;2023-04-03T00:45:46;5.40;99.90
30336;DHT22;17142;47.990;7.846;2023-04-03T00:48:39;5.40;99.90
30336;DHT22;17142;47.990;7.846;2023-04-03T00:51:07;5.50;99.90
30336;DHT22;17142;47.990;7.846;2023-04-03T00:53:41;5.40;99.90
30336;DHT22;17142;47.990;7.846;2023-04-03T00:56:11;5.30;99.90
30336;DHT22;17142;47.990;7.846;2023-04-03T00:58:42;5.20;99.90
30336;DHT22;17142;47.990;7.846;2023-04-03T01:01:13;5.30;99.90
30336;DHT22;17142;47.990;7.846;2023-04-03T01:03:42;5.20;99.90
30336;DHT22;17142;47.990;7.846;2023-04-03T01:06:11;5.20;99.90
30336;DHT22;17142;47.990;7.846;2023-04-03T01:08:37;5.20;99.90
30336;DHT22;17142;47.990;7.846;2023-04-03T01:11:05;5.10;99.90
30336;DHT22;17142;47.990;7.846;2023-04-03T01:13:33;5.10;99.90
30336;DHT22;17142;47.990;7.846;2023-04-03T01:16:03;5.20;99.90
30336;DHT22;17142;47.990;7.846;2023-04-03T01:18:30;5.20;99.90
30336;DHT22;17142;47.990;7.846;2023-04-03T01:23:51;5.00;99.90
30336;DHT22;17142;47.990;7.846;2023-04-03T01:26:21;4.80;99.90
30336;DHT22;17142;47.990;7.846;2023-04-03T01:28:46;4.80;99.90
30336;DHT22;17142;47.990;7.846;2023-04-03T01:33:47;4.70;99.90
30336;DHT22;17142;47.990;7.846;2023-04-03T01:36:39;4.70;99.90
30336;DHT22;17142;47.990;7.846;2023-04-03T01:39:05;4.80;99.90
30336;DHT22;17142;47.990;7.846;2023-04-03T01:41:33;4.90;99.90
30336;DHT22;17142;47.990;7.846;2023-04-03T01:44:01;5.00;99.90
30336;DHT22;17142;47.990;7.846;2023-04-03T01:46:27;5.00;99.90
30336;DHT22;17142;47.990;7.846;2023-04-03T01:48:52;5.00;99.90
30336;DHT22;17142;47.990;7.846;2023-04-03T01:51:18;5.00;99.90
30336;DHT22;17142;47.990;7.846;2023-04-03T01:53:44;5.10;99.90
30336;DHT22;17142;47.990;7.846;2023-04-03T01:56:11;5.20;99.90
30336;DHT22;17142;47.990;7.846;2023-04-03T01:58:37;5.10;99.90
30336;DHT22;17142;47.990;7.846;2023-04-03T02:01:06;5.10;99.90
30336;DHT22;17142;47.990;7.846;2023-04-03T02:03:32;5.10;99.90
30336;DHT22;17142;47.990;7.846;2023-04-03T02:05:58;5.00;99.90
30336;DHT22;17142;47.990;7.846;2023-04-03T02:08:26;5.10;99.90
30336;DHT22;17142;47.990;7.846;2023-04-03T02:10:54;5.00;99.90
30336;DHT22;17142;47.990;7.846;2023-04-03T02:13:19;4.90;99.90
30336;DHT22;17142;47.990;7.846;2023-04-03T02:15:48;4.90;99.90
30336;DHT22;17142;47.990;7.846;2023-04-03T02:18:16;4.90;99.90
30336;DHT22;17142;47.990;7.846;2023-04-03T02:20:42;4.80;99.90
30336;DHT22;17142;47.990;7.846;2023-04-03T02:23:07;4.90;99.90
30336;DHT22;17142;47.990;7.846;2023-04-03T02:25:35;4.90;99.90
30336;DHT22;17142;47.990;7.846;2023-04-03T02:28:01;4.90;99.90
30336;DHT22;17142;47.990;7.846;2023-04-03T02:30:27;4.80;99.90
30336;DHT22;17142;47.990;7.846;2023-04-03T02:32:52;4.70;99.90
30336;DHT22;17142;47.990;7.846;2023-04-03T02:35:18;4.80;99.90
30336;DHT22;17142;47.990;7.846;2023-04-03T02:37:44;4.80;99.90
30336;DHT22;17142;47.990;7.846;2023-04-03T02:40:10;4.70;99.90
30336;DHT22;17142;47.990;7.846;2023-04-03T02:42:37;4.80;99.90
30336;DHT22;17142;47.990;7.846;2023-04-03T02:45:05;4.90;99.90
30336;DHT22;17142;47.990;7.846;2023-04-03T02:47:35;4.80;99.90
30336;DHT22;17142;47.990;7.846;2023-04-03T02:50:01;4.70;99.90
30336;DHT22;17142;47.990;7.846;2023-04-03T02:52:26;4.60;99.90
30336;DHT22;17142;47.990;7.846;2023-04-03T02:54:52;4.60;99.90
30336;DHT22;17142;47.990;7.846;2023-04-03T02:57:17;4.60;99.90
30336;DHT22;17142;47.990;7.846;2023-04-03T02:59:47;4.50;99.90
30336;DHT22;17142;47.990;7.846;2023-04-03T03:02:12;4.40;99.90
30336;DHT22;17142;47.990;7.846;2023-04-03T03:04:38;4.50;99.90
30336;DHT22;17142;47.990;7.846;2023-04-03T03:07:03;4.50;99.90
30336;DHT22;17142;47.990;7.846;2023-04-03T03:09:31;4.40;99.90
30336;DHT22;17142;47.990;7.846;2023-04-03T03:11:57;4.30;99.90
30336;DHT22;17142;47.990;7.846;2023-04-03T03:14:23;4.30;99.90
30336;DHT22;17142;47.990;7.846;2023-04-03T03:16:52;4.40;99.90
30336;DHT22;17142;47.990;7.846;2023-04-03T03:19:20;4.30;99.90
30336;DHT22;17142;47.990;7.846;2023-04-03T03:21:45;4.40;99.90
30336;DHT22;17142;47.990;7.846;2023-04-03T03:24:11;4.40;99.90
30336;DHT22;17142;47.990;7.846;2023-04-03T03:26:39;4.40;99.90
30336;DHT22;17142;47.990;7.846;2023-04-03T03:29:05;4.50;99.90
30336;DHT22;17142;47.990;7.846;2023-04-03T03:31:30;4.60;99.90
30336;DHT22;17142;47.990;7.846;2023-04-03T03:33:56;4.60;99.90
30336;DHT22;17142;47.990;7.846;2023-04-03T03:36:24;4.50;99.90
30336;DHT22;17142;47.990;7.846;2023-04-03T03:38:49;4.40;99.90
30336;DHT22;17142;47.990;7.846;2023-04-03T03:41:15;4.40;99.90
30336;DHT22;17142;47.990;7.846;2023-04-03T03:43:43;4.40;99.90
30336;DHT22;17142;47.990;7.846;2023-04-03T03:46:09;4.40;99.90
30336;DHT22;17142;47.990;7.846;2023-04-03T03:48:35;4.30;99.90
30336;DHT22;17142;47.990;7.846;2023-04-03T03:51:00;4.30;99.90
30336;DHT22;17142;47.990;7.846;2023-04-03T03:53:28;4.40;99.90
30336;DHT22;17142;47.990;7.846;2023-04-03T03:55:54;4.40;99.90
30336;DHT22;17142;47.990;7.846;2023-04-03T03:58:22;4.40;99.90
30336;DHT22;17142;47.990;7.846;2023-04-03T04:00:54;4.50;99.90
30336;DHT22;17142;47.990;7.846;2023-04-03T04:03:43;4.40;99.90
30336;DHT22;17142;47.990;7.846;2023-04-03T04:06:08;4.40;99.90
30336;DHT22;17142;47.990;7.846;2023-04-03T04:08:41;4.40;99.90
30336;DHT22;17142;47.990;7.846;2023-04-03T04:11:16;4.40;99.90
30336;DHT22;17142;47.990;7.846;2023-04-03T04:13:42;4.40;99.90
30336;DHT22;17142;47.990;7.846;2023-04-03T04:16:10;4.30;99.90
30336;DHT22;17142;47.990;7.846;2023-04-03T04:18:40;4.20;99.90
30336;DHT22;17142;47.990;7.846;2023-04-03T04:21:05;4.30;99.90
30336;DHT22;17142;47.990;7.846;2023-04-03T04:23:31;4.30;99.90
30336;DHT22;17142;47.990;7.846;2023-04-03T04:25:57;4.30;99.90
30336;DHT22;17142;47.990;7.846;2023-04-03T04:28:22;4.30;99.90
30336;DHT22;17142;47.990;7.846;2023-04-03T04:30:48;4.40;99.90
30336;DHT22;17142;47.990;7.846;2023-04-03T04:33:14;4.40;99.90
30336;DHT22;17142;47.990;7.846;2023-04-03T04:35:44;4.30;99.90
30336;DHT22;17142;47.990;7.846;2023-04-03T04:38:09;4.40;99.90
30336;DHT22;17142;47.990;7.846;2023-04-03T04:40:35;4.40;99.90
30336;DHT22;17142;47.990;7.846;2023-04-03T04:43:03;4.40;99.90
30336;DHT22;17142;47.990;7.846;2023-04-03T04:45:31;4.40;99.90
30336;DHT22;17142;47.990;7.846;2023-04-03T04:47:57;4.50;99.90
30336;DHT22;17142;47.990;7.846;2023-04-03T04:50:22;4.50;99.90
30336;DHT22;17142;47.990;7.846;2023-04-03T04:52:48;4.50;99.90
30336;DHT22;17142;47.990;7.846;2023-04-03T04:55:16;4.50;99.90
30336;DHT22;17142;47.990;7.846;2023-04-03T04:57:44;4.60;99.90
30336;DHT22;17142;47.990;7.846;2023-04-03T05:00:12;4.50;99.90
30336;DHT22;17142;47.990;7.846;2023-04-03T05:02:38;4.60;99.90
30336;DHT22;17142;47.990;7.846;2023-04-03T05:05:04;4.60;99.90
30336;DHT22;17142;47.990;7.846;2023-04-03T05:07:30;4.70;99.90
30336;DHT22;17142;47.990;7.846;2023-04-03T05:09:55;4.60;99.90
30336;DHT22;17142;47.990;7.846;2023-04-03T05:12:21;4.60;99.90
30336;DHT22;17142;47.990;7.846;2023-04-03T05:14:47;4.70;99.90
30336;DHT22;17142;47.990;7.846;2023-04-03T05:17:15;4.80;99.90
30336;DHT22;17142;47.990;7.846;2023-04-03T05:19:41;4.80;99.90
30336;DHT22;17142;47.990;7.846;2023-04-03T05:22:11;4.80;99.90
30336;DHT22;17142;47.990;7.846;2023-04-03T05:24:37;4.80;99.90
30336;DHT22;17142;47.990;7.846;2023-04-03T05:27:02;5.00;99.90
30336;DHT22;17142;47.990;7.846;2023-04-03T05:29:28;5.10;99.90
30336;DHT22;17142;47.990;7.846;2023-04-03T05:31:54;5.10;99.90
30336;DHT22;17142;47.990;7.846;2023-04-03T05:34:22;5.00;99.90
30336;DHT22;17142;47.990;7.846;2023-04-03T05:36:49;4.90;99.90
30336;DHT22;17142;47.990;7.846;2023-04-03T05:39:18;4.90;99.90
30336;DHT22;17142;47.990;7.846;2023-04-03T05:41:46;4.90;99.90
30336;DHT22;17142;47.990;7.846;2023-04-03T05:44:14;5.10;99.90
30336;DHT22;17142;47.990;7.846;2023-04-03T05:46:42;5.20;99.90
30336;DHT22;17142;47.990;7.846;2023-04-03T05:49:10;5.20;99.90
30336;DHT22;17142;47.990;7.846;2023-04-03T05:51:36;5.20;99.90
30336;DHT22;17142;47.990;7.846;2023-04-03T05:54:16;5.30;99.90
30336;DHT22;17142;47.990;7.846;2023-04-03T05:56:44;5.30;99.90
30336;DHT22;17142;47.990;7.846;2023-04-03T05:59:10;5.40;99.90
30336;DHT22;17142;47.990;7.846;2023-04-03T06:01:39;5.40;99.90
30336;DHT22;17142;47.990;7.846;2023-04-03T06:04:05;5.40;99.90
30336;DHT22;17142;47.990;7.846;2023-04-03T06:06:51;5.40;99.90
30336;DHT22;17142;47.990;7.846;2023-04-03T06:09:22;5.50;99.90
30336;DHT22;17142;47.990;7.846;2023-04-03T06:11:48;5.50;99.90
30336;DHT22;17142;47.990;7.846;2023-04-03T06:14:13;5.60;99.90
30336;DHT22;17142;47.990;7.846;2023-04-03T06:16:42;5.70;99.90
30336;DHT22;17142;47.990;7.846;2023-04-03T06:19:11;5.80;99.90
30336;DHT22;17142;47.990;7.846;2023-04-03T06:21:37;5.80;99.90
30336;DHT22;17142;47.990;7.846;2023-04-03T06:24:04;5.80;99.90
30336;DHT22;17142;47.990;7.846;2023-04-03T06:26:30;5.80;99.90
30336;DHT22;17142;47.990;7.846;2023-04-03T06:29:00;5.90;99.90
30336;DHT22;17142;47.990;7.846;2023-04-03T06:31:27;6.00;99.90
30336;DHT22;17142;47.990;7.846;2023-04-03T06:33:53;6.00;99.90
30336;DHT22;17142;47.990;7.846;2023-04-03T06:36:20;6.00;99.90
30336;DHT22;17142;47.990;7.846;2023-04-03T06:38:46;6.00;99.90
30336;DHT22;17142;47.990;7.846;2023-04-03T06:41:12;6.10;99.90
30336;DHT22;17142;47.990;7.846;2023-04-03T06:43:38;6.10;99.90
30336;DHT22;17142;47.990;7.846;2023-04-03T06:46:04;6.10;99.90
30336;DHT22;17142;47.990;7.846;2023-04-03T06:48:30;6.20;99.90
30336;DHT22;17142;47.990;7.846;2023-04-03T06:50:58;6.30;99.90
30336;DHT22;17142;47.990;7.846;2023-04-03T06:53:26;6.40;99.90
30336;DHT22;17142;47.990;7.846;2023-04-03T06:55:52;6.50;99.90
30336;DHT22;17142;47.990;7.846;2023-04-03T06:58:17;6.60;99.90
30336;DHT22;17142;47.990;7.846;2023-04-03T07:00:43;6.60;99.90
30336;DHT22;17142;47.990;7.846;2023-04-03T07:03:09;6.70;99.90
30336;DHT22;17142;47.990;7.846;2023-04-03T07:05:35;6.80;99.90
30336;DHT22;17142;47.990;7.846;2023-04-03T07:08:01;6.80;99.90
30336;DHT22;17142;47.990;7.846;2023-04-03T07:10:27;6.90;99.90
30336;DHT22;17142;47.990;7.846;2023-04-03T07:12:52;6.90;99.90
30336;DHT22;17142;47.990;7.846;2023-04-03T07:15:20;6.90;99.90
30336;DHT22;17142;47.990;7.846;2023-04-03T07:17:46;7.10;99.90
30336;DHT22;17142;47.990;7.846;2023-04-03T07:20:12;7.10;99.70
30336;DHT22;17142;47.990;7.846;2023-04-03T07:22:37;7.20;99.10
30336;DHT22;17142;47.990;7.846;2023-04-03T07:25:03;7.30;97.40
30336;DHT22;17142;47.990;7.846;2023-04-03T07:27:29;7.30;97.40
30336;DHT22;17142;47.990;7.846;2023-04-03T07:29:57;7.30;96.30
30336;DHT22;17142;47.990;7.846;2023-04-03T07:32:23;7.30;96.90
30336;DHT22;17142;47.990;7.846;2023-04-03T07:34:49;7.40;96.30
30336;DHT22;17142;47.990;7.846;2023-04-03T07:37:18;7.40;95.20
30336;DHT22;17142;47.990;7.846;2023-04-03T07:39:46;7.30;95.40
30336;DHT22;17142;47.990;7.846;2023-04-03T07:42:12;7.40;94.80
30336;DHT22;17142;47.990;7.846;2023-04-03T07:44:38;7.60;94.60
30336;DHT22;17142;47.990;7.846;2023-04-03T07:47:06;7.70;94.30
30336;DHT22;17142;47.990;7.846;2023-04-03T07:49:34;7.80;94.30
30336;DHT22;17142;47.990;7.846;2023-04-03T07:52:05;8.00;93.40
30336;DHT22;17142;47.990;7.846;2023-04-03T07:54:30;8.10;92.70
30336;DHT22;17142;47.990;7.846;2023-04-03T07:56:56;8.20;92.20
30336;DHT22;17142;47.990;7.846;2023-04-03T07:59:22;8.30;93.30
30336;DHT22;17142;47.990;7.846;2023-04-03T08:01:48;8.50;92.10
30336;DHT22;17142;47.990;7.846;2023-04-03T08:04:14;8.60;90.30
30336;DHT22;17142;47.990;7.846;2023-04-03T08:06:39;8.60;90.40
30336;DHT22;17142;47.990;7.846;2023-04-03T08:09:05;8.60;90.10
30336;DHT22;17142;47.990;7.846;2023-04-03T08:11:31;8.70;90.50
30336;DHT22;17142;47.990;7.846;2023-04-03T08:13:57;8.90;90.10
30336;DHT22;17142;47.990;7.846;2023-04-03T08:16:24;9.10;90.20
30336;DHT22;17142;47.990;7.846;2023-04-03T08:18:55;9.10;86.80
30336;DHT22;17142;47.990;7.846;2023-04-03T08:21:21;9.30;86.60
30336;DHT22;17142;47.990;7.846;2023-04-03T08:23:49;9.50;87.10
30336;DHT22;17142;47.990;7.846;2023-04-03T08:26:19;9.70;86.10
30336;DHT22;17142;47.990;7.846;2023-04-03T08:28:46;9.80;83.00
30336;DHT22;17142;47.990;7.846;2023-04-03T08:31:15;9.80;80.90
30336;DHT22;17142;47.990;7.846;2023-04-03T08:33:41;9.70;81.00
30336;DHT22;17142;47.990;7.846;2023-04-03T08:36:16;9.50;80.10
30336;DHT22;17142;47.990;7.846;2023-04-03T08:38:42;9.30;82.10
30336;DHT22;17142;47.990;7.846;2023-04-03T08:41:38;9.40;82.70
30336;DHT22;17142;47.990;7.846;2023-04-03T08:47:38;9.30;81.50
30336;DHT22;17142;47.990;7.846;2023-04-03T08:50:16;9.30;81.60
30336;DHT22;17142;47.990;7.846;2023-04-03T08:58:02;9.10;76.80
30336;DHT22;17142;47.990;7.846;2023-04-03T09:00:34;9.00;78.00
30336;DHT22;17142;47.990;7.846;2023-04-03T09:03:02;9.00;78.90
30336;DHT22;17142;47.990;7.846;2023-04-03T09:08:22;9.00;77.10
30336;DHT22;17142;47.990;7.846;2023-04-03T09:11:05;9.00;74.60
30336;DHT22;17142;47.990;7.846;2023-04-03T09:16:47;8.90;75.10
30336;DHT22;17142;47.990;7.846;2023-04-03T09:24:38;10.20;69.80
30336;DHT22;17142;47.990;7.846;2023-04-03T09:27:06;10.40;69.00
30336;DHT22;17142;47.990;7.846;2023-04-03T09:29:37;10.50;68.30
30336;DHT22;17142;47.990;7.846;2023-04-03T09:34:46;10.20;67.30
30336;DHT22;17142;47.990;7.846;2023-04-03T09:40:04;10.30;67.50
30336;DHT22;17142;47.990;7.846;2023-04-03T09:42:31;10.20;65.40
30336;DHT22;17142;47.990;7.846;2023-04-03T09:44:59;10.10;63.90
30336;DHT22;17142;47.990;7.846;2023-04-03T09:47:31;9.90;65.90
30336;DHT22;17142;47.990;7.846;2023-04-03T09:52:45;9.80;64.60
30336;DHT22;17142;47.990;7.846;2023-04-03T09:57:41;9.70;61.60
30336;DHT22;17142;47.990;7.846;2023-04-03T10:00:20;9.40;62.90
30336;DHT22;17142;47.990;7.846;2023-04-03T10:02:51;9.20;64.90
30336;DHT22;17142;47.990;7.846;2023-04-03T10:10:37;9.50;64.50
30336;DHT22;17142;47.990;7.846;2023-04-03T10:13:08;9.50;64.00
30336;DHT22;17142;47.990;7.846;2023-04-03T10:15:41;9.60;63.40
30336;DHT22;17142;47.990;7.846;2023-04-03T10:21:06;9.50;62.30
30336;DHT22;17142;47.990;7.846;2023-04-03T10:23:42;9.20;63.50
30336;DHT22;17142;47.990;7.846;2023-04-03T10:29:02;9.00;65.10
30336;DHT22;17142;47.990;7.846;2023-04-03T10:37:01;9.70;64.60
30336;DHT22;17142;47.990;7.846;2023-04-03T10:39:40;9.90;63.10
30336;DHT22;17142;47.990;7.846;2023-04-03T10:42:31;9.70;62.00
30336;DHT22;17142;47.990;7.846;2023-04-03T10:59:05;9.30;65.50
30336;DHT22;17142;47.990;7.846;2023-04-03T11:01:35;9.50;65.00
30336;DHT22;17142;47.990;7.846;2023-04-03T11:04:04;9.70;64.80
30336;DHT22;17142;47.990;7.846;2023-04-03T11:09:27;9.80;62.60
30336;DHT22;17142;47.990;7.846;2023-04-03T11:14:43;9.70;63.40
30336;DHT22;17142;47.990;7.846;2023-04-03T11:17:21;9.60;63.50
30336;DHT22;17142;47.990;7.846;2023-04-03T11:22:32;9.70;63.90
30336;DHT22;17142;47.990;7.846;2023-04-03T11:25:24;9.80;64.20
30336;DHT22;17142;47.990;7.846;2023-04-03T11:28:01;9.80;59.90
30336;DHT22;17142;47.990;7.846;2023-04-03T11:36:18;9.50;63.70
30336;DHT22;17142;47.990;7.846;2023-04-03T11:38:46;9.60;64.00
30336;DHT22;17142;47.990;7.846;2023-04-03T11:41:13;9.70;63.90
30336;DHT22;17142;47.990;7.846;2023-04-03T11:46:22;9.90;64.10
30336;DHT22;17142;47.990;7.846;2023-04-03T11:48:51;10.00;62.80
30336;DHT22;17142;47.990;7.846;2023-04-03T11:53:53;10.00;61.80
30336;DHT22;17142;47.990;7.846;2023-04-03T12:01:51;9.90;61.00
30336;DHT22;17142;47.990;7.846;2023-04-03T12:04:20;9.90;61.30
30336;DHT22;17142;47.990;7.846;2023-04-03T12:11:48;10.20;59.80
30336;DHT22;17142;47.990;7.846;2023-04-03T12:14:15;10.10;60.30
30336;DHT22;17142;47.990;7.846;2023-04-03T12:16:44;9.80;62.20
30336;DHT22;17142;47.990;7.846;2023-04-03T12:32:34;9.20;64.70
30336;DHT22;17142;47.990;7.846;2023-04-03T12:41:17;9.60;63.90
30336;DHT22;17142;47.990;7.846;2023-04-03T12:44:08;9.40;63.60
30336;DHT22;17142;47.990;7.846;2023-04-03T12:46:50;9.20;62.00
30336;DHT22;17142;47.990;7.846;2023-04-03T12:49:38;9.20;61.80
30336;DHT22;17142;47.990;7.846;2023-04-03T12:54:45;9.30;61.00
30336;DHT22;17142;47.990;7.846;2023-04-03T12:57:18;9.30;62.10
30336;DHT22;17142;47.990;7.846;2023-04-03T12:59:45;9.10;61.80
30336;DHT22;17142;47.990;7.846;2023-04-03T13:04:51;9.20;63.20
30336;DHT22;17142;47.990;7.846;2023-04-03T13:07:25;9.10;63.40
30336;DHT22;17142;47.990;7.846;2023-04-03T13:10:04;9.20;63.90
30336;DHT22;17142;47.990;7.846;2023-04-03T13:12:30;9.20;63.70
30336;DHT22;17142;47.990;7.846;2023-04-03T13:15:00;9.10;63.30
30336;DHT22;17142;47.990;7.846;2023-04-03T13:17:32;9.10;63.20
30336;DHT22;17142;47.990;7.846;2023-04-03T13:20:17;9.20;63.10
30336;DHT22;17142;47.990;7.846;2023-04-03T13:22:49;9.40;62.50
30336;DHT22;17142;47.990;7.846;2023-04-03T13:25:17;9.40;63.00
30336;DHT22;17142;47.990;7.846;2023-04-03T13:27:46;9.60;62.20
30336;DHT22;17142;47.990;7.846;2023-04-03T13:30:36;9.70;62.30
30336;DHT22;17142;47.990;7.846;2023-04-03T13:33:05;9.80;60.90
30336;DHT22;17142;47.990;7.846;2023-04-03T13:38:05;9.60;60.10
30336;DHT22;17142;47.990;7.846;2023-04-03T13:40:31;9.50;61.10
30336;DHT22;17142;47.990;7.846;2023-04-03T13:43:16;9.50;62.00
30336;DHT22;17142;47.990;7.846;2023-04-03T13:48:36;9.60;62.10
30336;DHT22;17142;47.990;7.846;2023-04-03T13:51:26;9.60;61.00
30336;DHT22;17142;47.990;7.846;2023-04-03T13:53:58;9.70;60.80
30336;DHT22;17142;47.990;7.846;2023-04-03T14:01:25;9.50;60.10
30336;DHT22;17142;47.990;7.846;2023-04-03T14:04:01;9.40;61.00
30336;DHT22;17142;47.990;7.846;2023-04-03T14:06:37;9.40;61.60
30336;DHT22;17142;47.990;7.846;2023-04-03T14:09:03;9.40;60.70
30336;DHT22;17142;47.990;7.846;2023-04-03T14:11:30;9.40;60.00
30336;DHT22;17142;47.990;7.846;2023-04-03T14:13:58;9.30;60.40
30336;DHT22;17142;47.990;7.846;2023-04-03T14:16:27;9.20;60.00
30336;DHT22;17142;47.990;7.846;2023-04-03T14:18:54;9.20;60.80
30336;DHT22;17142;47.990;7.846;2023-04-03T14:21:21;9.20;60.80
30336;DHT22;17142;47.990;7.846;2023-04-03T14:23:47;9.10;61.00
30336;DHT22;17142;47.990;7.846;2023-04-03T14:26:18;9.10;61.10
30336;DHT22;17142;47.990;7.846;2023-04-03T14:28:50;9.20;61.40
30336;DHT22;17142;47.990;7.846;2023-04-03T14:31:17;9.00;61.30
30336;DHT22;17142;47.990;7.846;2023-04-03T14:33:44;9.00;62.40
30336;DHT22;17142;47.990;7.846;2023-04-03T14:36:30;9.10;62.20
30336;DHT22;17142;47.990;7.846;2023-04-03T14:38:56;9.10;61.80
30336;DHT22;17142;47.990;7.846;2023-04-03T14:41:26;9.10;61.10
30336;DHT22;17142;47.990;7.846;2023-04-03T14:43:52;9.10;60.90
30336;DHT22;17142;47.990;7.846;2023-04-03T14:46:35;9.00;59.90
30336;DHT22;17142;47.990;7.846;2023-04-03T14:49:02;8.80;59.90
30336;DHT22;17142;47.990;7.846;2023-04-03T14:51:33;8.80;61.00
30336;DHT22;17142;47.990;7.846;2023-04-03T14:53:59;8.70;61.20
30336;DHT22;17142;47.990;7.846;2023-04-03T14:56:28;8.70;61.10
30336;DHT22;17142;47.990;7.846;2023-04-03T14:58:59;8.60;61.80
30336;DHT22;17142;47.990;7.846;2023-04-03T15:01:28;8.60;62.70
30336;DHT22;17142;47.990;7.846;2023-04-03T15:03:54;8.50;62.80
30336;DHT22;17142;47.990;7.846;2023-04-03T15:06:25;8.50;63.10
30336;DHT22;17142;47.990;7.846;2023-04-03T15:08:50;8.50;63.30
30336;DHT22;17142;47.990;7.846;2023-04-03T15:11:16;8.50;63.00
30336;DHT22;17142;47.990;7.846;2023-04-03T15:13:42;8.50;61.70
30336;DHT22;17142;47.990;7.846;2023-04-03T15:16:25;8.50;62.30
30336;DHT22;17142;47.990;7.846;2023-04-03T15:18:52;8.60;61.80
30336;DHT22;17142;47.990;7.846;2023-04-03T15:21:17;8.60;61.30
30336;DHT22;17142;47.990;7.846;2023-04-03T15:23:43;8.70;61.40
30336;DHT22;17142;47.990;7.846;2023-04-03T15:26:08;8.70;61.00
30336;DHT22;17142;47.990;7.846;2023-04-03T15:28:42;8.70;60.50
30336;DHT22;17142;47.990;7.846;2023-04-03T15:31:08;8.60;60.80
30336;DHT22;17142;47.990;7.846;2023-04-03T15:33:35;8.60;60.80
30336;DHT22;17142;47.990;7.846;2023-04-03T15:36:01;8.50;61.20
30336;DHT22;17142;47.990;7.846;2023-04-03T15:38:27;8.50;61.10
30336;DHT22;17142;47.990;7.846;2023-04-03T15:40:54;8.50;62.20
30336;DHT22;17142;47.990;7.846;2023-04-03T15:43:20;8.60;60.00
30336;DHT22;17142;47.990;7.846;2023-04-03T15:45:45;8.40;60.10
30336;DHT22;17142;47.990;7.846;2023-04-03T15:48:12;8.40;60.10
30336;DHT22;17142;47.990;7.846;2023-04-03T15:50:40;8.40;60.00
30336;DHT22;17142;47.990;7.846;2023-04-03T15:53:08;8.30;60.40
30336;DHT22;17142;47.990;7.846;2023-04-03T15:55:35;8.20;61.10
30336;DHT22;17142;47.990;7.846;2023-04-03T15:58:02;8.20;61.00
30336;DHT22;17142;47.990;7.846;2023-04-03T16:00:28;8.20;59.40
30336;DHT22;17142;47.990;7.846;2023-04-03T16:03:05;8.10;58.10
30336;DHT22;17142;47.990;7.846;2023-04-03T16:05:31;8.00;58.80
30336;DHT22;17142;47.990;7.846;2023-04-03T16:08:04;8.00;59.70
30336;DHT22;17142;47.990;7.846;2023-04-03T16:10:36;7.90;60.40
30336;DHT22;17142;47.990;7.846;2023-04-03T16:13:11;7.90;60.70
30336;DHT22;17142;47.990;7.846;2023-04-03T16:15:36;8.00;59.70
30336;DHT22;17142;47.990;7.846;2023-04-03T16:18:08;8.00;59.00
30336;DHT22;17142;47.990;7.846;2023-04-03T16:20:41;7.90;59.80
30336;DHT22;17142;47.990;7.846;2023-04-03T16:23:09;7.80;59.80
30336;DHT22;17142;47.990;7.846;2023-04-03T16:25:42;7.80;59.50
30336;DHT22;17142;47.990;7.846;2023-04-03T16:28:15;7.80;58.90
30336;DHT22;17142;47.990;7.846;2023-04-03T16:30:47;7.80;58.90
30336;DHT22;17142;47.990;7.846;2023-04-03T16:33:19;7.70;58.90
30336;DHT22;17142;47.990;7.846;2023-04-03T16:35:47;7.70;59.10
30336;DHT22;17142;47.990;7.846;2023-04-03T16:38:25;7.60;59.40
30336;DHT22;17142;47.990;7.846;2023-04-03T16:40:54;7.60;58.10
30336;DHT22;17142;47.990;7.846;2023-04-03T16:43:31;7.60;58.60
30336;DHT22;17142;47.990;7.846;2023-04-03T16:45:58;7.50;58.70
30336;DHT22;17142;47.990;7.846;2023-04-03T16:48:32;7.50;59.40
30336;DHT22;17142;47.990;7.846;2023-04-03T16:51:03;7.50;59.60
30336;DHT22;17142;47.990;7.846;2023-04-03T16:53:35;7.50;58.80
30336;DHT22;17142;47.990;7.846;2023-04-03T16:56:24;7.40;59.20
30336;DHT22;17142;47.990;7.846;2023-04-03T16:58:54;7.40;59.60
30336;DHT22;17142;47.990;7.846;2023-04-03T17:01:22;7.40;59.10
30336;DHT22;17142;47.990;7.846;2023-04-03T17:03:57;7.40;58.90
30336;DHT22;17142;47.990;7.846;2023-04-03T17:06:31;7.30;59.50
30336;DHT22;17142;47.990;7.846;2023-04-03T17:09:03;7.40;59.10
30336;DHT22;17142;47.990;7.846;2023-04-03T17:11:30;7.30;59.20
30336;DHT22;17142;47.990;7.846;2023-04-03T17:14:28;7.30;59.80
30336;DHT22;17142;47.990;7.846;2023-04-03T17:16:53;7.30;60.40
30336;DHT22;17142;47.990;7.846;2023-04-03T17:19:19;7.20;61.00
30336;DHT22;17142;47.990;7.846;2023-04-03T17:21:45;7.10;60.60
30336;DHT22;17142;47.990;7.846;2023-04-03T17:24:14;7.10;60.70
30336;DHT22;17142;47.990;7.846;2023-04-03T17:26:50;7.10;61.00
30336;DHT22;17142;47.990;7.846;2023-04-03T17:29:21;7.10;62.10
30336;DHT22;17142;47.990;7.846;2023-04-03T17:31:53;7.00;62.50
30336;DHT22;17142;47.990;7.846;2023-04-03T17:34:22;6.90;62.70
30336;DHT22;17142;47.990;7.846;2023-04-03T17:36:53;6.90;62.80
30336;DHT22;17142;47.990;7.846;2023-04-03T17:39:22;6.90;62.60
30336;DHT22;17142;47.990;7.846;2023-04-03T17:41:47;6.90;63.00
30336;DHT22;17142;47.990;7.846;2023-04-03T17:44:19;6.80;63.50
30336;DHT22;17142;47.990;7.846;2023-04-03T17:46:45;6.80;62.20
30336;DHT22;17142;47.990;7.846;2023-04-03T17:49:14;6.70;62.70
30336;DHT22;17142;47.990;7.846;2023-04-03T17:51:49;6.60;63.20
30336;DHT22;17142;47.990;7.846;2023-04-03T17:54:17;6.60;63.10
30336;DHT22;17142;47.990;7.846;2023-04-03T17:56:42;6.60;62.70
30336;DHT22;17142;47.990;7.846;2023-04-03T17:59:21;6.70;62.40
30336;DHT22;17142;47.990;7.846;2023-04-03T18:01:54;6.70;62.40
30336;DHT22;17142;47.990;7.846;2023-04-03T18:04:27;6.70;62.50
30336;DHT22;17142;47.990;7.846;2023-04-03T18:06:58;6.60;62.80
30336;DHT22;17142;47.990;7.846;2023-04-03T18:09:32;6.60;62.70